sensor_id;sensor_type;location;lat;lon;timestamp;P1;durP1;ratioP1;P2;durP2;ratioP2
58460;SDS011;45558;37.752;-97.822;2023-07-22T00:00:54;22.48;;;13.45;;
58460;SDS011;45558;37.752;-97.822;2023-07-22T00:03:20;18.98;;;12.88;;
58460;SDS011;45558;37.752;-97.822;2023-07-22T00:05:45;17.98;;;12.32;;
58460;SDS011;45558;37.752;-97.822;2023-07-22T00:08:11;18.85;;;12.73;;
58460;SDS011;45558;37.752;-97.822;2023-07-22T00:10:41;19.38;;;12.77;;
58460;SDS011;45558;37.752;-97.822;2023-07-22T00:13:08;20.02;;;11.95;;
58460;SDS011;45558;37.752;-97.822;2023-07-22T00:15:33;23.05;;;14.05;;
58460;SDS011;45558;37.752;-97.822;2023-07-22T00:17:58;19.77;;;12.25;;
58460;SDS011;45558;37.752;-97.822;2023-07-22T00:20:24;20.70;;;12.70;;
58460;SDS011;45558;37.752;-97.822;2023-07-22T00:22:52;18.73;;;12.65;;
58460;SDS011;45558;37.752;-97.822;2023-07-22T00:25:17;16.67;;;11.32;;
58460;SDS011;45558;37.752;-97.822;2023-07-22T00:27:43;19.02;;;11.43;;
58460;SDS011;45558;37.752;-97.822;2023-07-22T00:30:09;20.77;;;11.45;;
58460;SDS011;45558;37.752;-97.822;2023-07-22T00:32:34;17.35;;;10.10;;
58460;SDS011;45558;37.752;-97.822;2023-07-22T00:35:02;18.17;;;11.40;;
58460;SDS011;45558;37.752;-97.822;2023-07-22T00:37:30;16.80;;;10.52;;
58460;SDS011;45558;37.752;-97.822;2023-07-22T00:39:56;17.40;;;10.88;;
58460;SDS011;45558;37.752;-97.822;2023-07-22T00:42:21;14.73;;;9.73;;
58460;SDS011;45558;37.752;-97.822;2023-07-22T00:44:49;16.08;;;9.48;;
58460;SDS011;45558;37.752;-97.822;2023-07-22T00:47:15;15.80;;;8.80;;
58460;SDS011;45558;37.752;-97.822;2023-07-22T00:49:40;13.23;;;9.50;;
58460;SDS011;45558;37.752;-97.822;2023-07-22T00:52:06;13.27;;;9.60;;
58460;SDS011;45558;37.752;-97.822;2023-07-22T00:54:31;15.35;;;9.85;;
58460;SDS011;45558;37.752;-97.822;2023-07-22T00:56:57;18.20;;;9.77;;
58460;SDS011;45558;37.752;-97.822;2023-07-22T00:59:23;12.32;;;9.10;;
58460;SDS011;45558;37.752;-97.822;2023-07-22T01:01:56;15.23;;;8.90;;
58460;SDS011;45558;37.752;-97.822;2023-07-22T01:04:22;12.20;;;9.45;;
58460;SDS011;45558;37.752;-97.822;2023-07-22T01:06:48;13.60;;;8.70;;
58460;SDS011;45558;37.752;-97.822;2023-07-22T01:09:16;11.07;;;8.13;;
58460;SDS011;45558;37.752;-97.822;2023-07-22T01:11:45;15.27;;;8.52;;
58460;SDS011;45558;37.752;-97.822;2023-07-22T01:14:10;12.40;;;8.07;;
58460;SDS011;45558;37.752;-97.822;2023-07-22T01:16:35;11.02;;;7.60;;
58460;SDS011;45558;37.752;-97.822;2023-07-22T01:19:01;11.20;;;8.07;;
58460;SDS011;45558;37.752;-97.822;2023-07-22T01:21:29;12.57;;;8.05;;
58460;SDS011;45558;37.752;-97.822;2023-07-22T01:23:54;13.45;;;8.50;;
58460;SDS011;45558;37.752;-97.822;2023-07-22T01:26:22;11.35;;;7.72;;
58460;SDS011;45558;37.752;-97.822;2023-07-22T01:28:47;16.65;;;7.85;;
58460;SDS011;45558;37.752;-97.822;2023-07-22T01:31:13;11.68;;;7.45;;
58460;SDS011;45558;37.752;-97.822;2023-07-22T01:33:40;11.38;;;7.57;;
58460;SDS011;45558;37.752;-97.822;2023-07-22T01:36:06;11.95;;;7.13;;
58460;SDS011;45558;37.752;-97.822;2023-07-22T01:38:32;11.95;;;6.70;;
58460;SDS011;45558;37.752;-97.822;2023-07-22T01:40:58;10.43;;;6.47;;
58460;SDS011;45558;37.752;-97.822;2023-07-22T01:43:26;12.43;;;7.55;;
58460;SDS011;45558;37.752;-97.822;2023-07-22T01:45:51;13.45;;;7.50;;
58460;SDS011;45558;37.752;-97.822;2023-07-22T01:48:18;12.50;;;6.70;;
58460;SDS011;45558;37.752;-97.822;2023-07-22T01:50:44;9.15;;;6.60;;
58460;SDS011;45558;37.752;-97.822;2023-07-22T01:53:10;8.07;;;6.57;;
58460;SDS011;45558;37.752;-97.822;2023-07-22T01:55:42;12.68;;;8.13;;
58460;SDS011;45558;37.752;-97.822;2023-07-22T01:58:09;12.88;;;7.97;;
58460;SDS011;45558;37.752;-97.822;2023-07-22T02:00:34;10.68;;;7.13;;
58460;SDS011;45558;37.752;-97.822;2023-07-22T02:03:00;13.98;;;7.68;;
58460;SDS011;45558;37.752;-97.822;2023-07-22T02:05:25;13.45;;;7.57;;
58460;SDS011;45558;37.752;-97.822;2023-07-22T02:07:52;12.65;;;8.48;;
58460;SDS011;45558;37.752;-97.822;2023-07-22T02:10:20;15.38;;;9.00;;
58460;SDS011;45558;37.752;-97.822;2023-07-22T02:12:48;15.60;;;8.48;;
58460;SDS011;45558;37.752;-97.822;2023-07-22T02:15:14;13.30;;;8.60;;
58460;SDS011;45558;37.752;-97.822;2023-07-22T02:17:40;12.98;;;8.48;;
58460;SDS011;45558;37.752;-97.822;2023-07-22T02:20:06;12.38;;;8.90;;
58460;SDS011;45558;37.752;-97.822;2023-07-22T02:22:33;13.75;;;8.18;;
58460;SDS011;45558;37.752;-97.822;2023-07-22T02:24:59;11.23;;;8.40;;
58460;SDS011;45558;37.752;-97.822;2023-07-22T02:27:25;12.88;;;8.68;;
58460;SDS011;45558;37.752;-97.822;2023-07-22T02:29:52;12.98;;;8.23;;
58460;SDS011;45558;37.752;-97.822;2023-07-22T02:32:18;15.20;;;9.75;;
58460;SDS011;45558;37.752;-97.822;2023-07-22T02:34:43;14.98;;;8.43;;
58460;SDS011;45558;37.752;-97.822;2023-07-22T02:37:08;12.70;;;8.25;;
58460;SDS011;45558;37.752;-97.822;2023-07-22T02:39:35;10.98;;;7.50;;
58460;SDS011;45558;37.752;-97.822;2023-07-22T02:42:00;11.70;;;7.15;;
58460;SDS011;45558;37.752;-97.822;2023-07-22T02:44:26;13.95;;;7.85;;
58460;SDS011;45558;37.752;-97.822;2023-07-22T02:46:52;11.18;;;6.93;;
58460;SDS011;45558;37.752;-97.822;2023-07-22T02:49:17;11.15;;;7.93;;
58460;SDS011;45558;37.752;-97.822;2023-07-22T02:51:46;12.02;;;7.57;;
58460;SDS011;45558;37.752;-97.822;2023-07-22T02:54:12;10.05;;;7.40;;
58460;SDS011;45558;37.752;-97.822;2023-07-22T02:56:38;11.00;;;6.18;;
58460;SDS011;45558;37.752;-97.822;2023-07-22T02:59:04;11.93;;;6.45;;
58460;SDS011;45558;37.752;-97.822;2023-07-22T03:01:32;10.65;;;6.03;;
58460;SDS011;45558;37.752;-97.822;2023-07-22T03:04:00;9.98;;;5.40;;
58460;SDS011;45558;37.752;-97.822;2023-07-22T03:06:25;6.43;;;4.65;;
58460;SDS011;45558;37.752;-97.822;2023-07-22T03:08:51;10.10;;;4.57;;
58460;SDS011;45558;37.752;-97.822;2023-07-22T03:11:16;6.20;;;4.65;;
58460;SDS011;45558;37.752;-97.822;2023-07-22T03:13:42;7.95;;;5.07;;
58460;SDS011;45558;37.752;-97.822;2023-07-22T03:16:09;7.65;;;4.97;;
58460;SDS011;45558;37.752;-97.822;2023-07-22T03:18:34;6.45;;;4.70;;
58460;SDS011;45558;37.752;-97.822;2023-07-22T03:20:59;8.85;;;4.75;;
58460;SDS011;45558;37.752;-97.822;2023-07-22T03:23:27;6.88;;;4.63;;
58460;SDS011;45558;37.752;-97.822;2023-07-22T03:25:53;5.88;;;4.30;;
58460;SDS011;45558;37.752;-97.822;2023-07-22T03:28:19;7.30;;;3.70;;
58460;SDS011;45558;37.752;-97.822;2023-07-22T03:30:44;5.10;;;3.67;;
58460;SDS011;45558;37.752;-97.822;2023-07-22T03:33:10;8.95;;;4.50;;
58460;SDS011;45558;37.752;-97.822;2023-07-22T03:35:35;5.35;;;3.70;;
58460;SDS011;45558;37.752;-97.822;2023-07-22T03:38:01;5.78;;;4.32;;
58460;SDS011;45558;37.752;-97.822;2023-07-22T03:40:31;4.87;;;3.40;;
58460;SDS011;45558;37.752;-97.822;2023-07-22T03:42:57;6.60;;;3.65;;
58460;SDS011;45558;37.752;-97.822;2023-07-22T03:45:23;4.30;;;3.60;;
58460;SDS011;45558;37.752;-97.822;2023-07-22T03:47:54;4.32;;;3.17;;
58460;SDS011;45558;37.752;-97.822;2023-07-22T03:50:23;4.90;;;3.47;;
58460;SDS011;45558;37.752;-97.822;2023-07-22T03:52:49;4.95;;;3.15;;
58460;SDS011;45558;37.752;-97.822;2023-07-22T03:55:14;5.00;;;3.50;;
58460;SDS011;45558;37.752;-97.822;2023-07-22T03:57:39;5.13;;;3.63;;
58460;SDS011;45558;37.752;-97.822;2023-07-22T04:00:06;7.63;;;4.00;;
58460;SDS011;45558;37.752;-97.822;2023-07-22T04:02:35;9.60;;;4.10;;
58460;SDS011;45558;37.752;-97.822;2023-07-22T04:05:00;8.30;;;4.70;;
58460;SDS011;45558;37.752;-97.822;2023-07-22T04:07:26;10.20;;;5.55;;
58460;SDS011;45558;37.752;-97.822;2023-07-22T04:09:52;7.22;;;5.05;;
58460;SDS011;45558;37.752;-97.822;2023-07-22T04:12:17;8.48;;;5.18;;
58460;SDS011;45558;37.752;-97.822;2023-07-22T04:14:43;8.77;;;6.00;;
58460;SDS011;45558;37.752;-97.822;2023-07-22T04:17:09;12.63;;;6.47;;
58460;SDS011;45558;37.752;-97.822;2023-07-22T04:19:34;9.70;;;6.22;;
58460;SDS011;45558;37.752;-97.822;2023-07-22T04:22:00;11.63;;;5.82;;
58460;SDS011;45558;37.752;-97.822;2023-07-22T04:24:29;11.05;;;7.40;;
58460;SDS011;45558;37.752;-97.822;2023-07-22T04:26:56;10.18;;;6.25;;
58460;SDS011;45558;37.752;-97.822;2023-07-22T04:29:22;10.05;;;6.47;;
58460;SDS011;45558;37.752;-97.822;2023-07-22T04:31:47;10.07;;;6.50;;
58460;SDS011;45558;37.752;-97.822;2023-07-22T04:34:13;9.48;;;6.10;;
58460;SDS011;45558;37.752;-97.822;2023-07-22T04:36:38;10.65;;;6.30;;
58460;SDS011;45558;37.752;-97.822;2023-07-22T04:39:04;9.60;;;5.63;;
58460;SDS011;45558;37.752;-97.822;2023-07-22T04:41:32;10.57;;;6.30;;
58460;SDS011;45558;37.752;-97.822;2023-07-22T04:43:58;8.05;;;5.82;;
58460;SDS011;45558;37.752;-97.822;2023-07-22T04:46:24;8.82;;;4.78;;
58460;SDS011;45558;37.752;-97.822;2023-07-22T04:48:50;8.48;;;5.80;;
58460;SDS011;45558;37.752;-97.822;2023-07-22T04:51:16;9.52;;;5.70;;
58460;SDS011;45558;37.752;-97.822;2023-07-22T04:53:43;10.93;;;6.00;;
58460;SDS011;45558;37.752;-97.822;2023-07-22T04:56:09;9.25;;;5.43;;
58460;SDS011;45558;37.752;-97.822;2023-07-22T04:58:34;9.77;;;4.75;;
58460;SDS011;45558;37.752;-97.822;2023-07-22T05:01:00;10.18;;;5.50;;
58460;SDS011;45558;37.752;-97.822;2023-07-22T05:03:25;8.90;;;5.53;;
58460;SDS011;45558;37.752;-97.822;2023-07-22T05:05:51;9.65;;;5.10;;
58460;SDS011;45558;37.752;-97.822;2023-07-22T05:08:17;6.95;;;5.10;;
58460;SDS011;45558;37.752;-97.822;2023-07-22T05:10:42;8.02;;;4.82;;
58460;SDS011;45558;37.752;-97.822;2023-07-22T05:13:08;6.85;;;5.35;;
58460;SDS011;45558;37.752;-97.822;2023-07-22T05:15:33;8.63;;;4.80;;
58460;SDS011;45558;37.752;-97.822;2023-07-22T05:18:02;8.30;;;4.65;;
58460;SDS011;45558;37.752;-97.822;2023-07-22T05:20:27;9.60;;;5.70;;
58460;SDS011;45558;37.752;-97.822;2023-07-22T05:22:55;9.65;;;5.38;;
58460;SDS011;45558;37.752;-97.822;2023-07-22T05:25:30;11.15;;;4.97;;
58460;SDS011;45558;37.752;-97.822;2023-07-22T05:27:57;6.75;;;5.38;;
58460;SDS011;45558;37.752;-97.822;2023-07-22T05:30:23;6.72;;;4.22;;
58460;SDS011;45558;37.752;-97.822;2023-07-22T05:32:52;5.43;;;4.18;;
58460;SDS011;45558;37.752;-97.822;2023-07-22T05:35:19;8.32;;;3.80;;
58460;SDS011;45558;37.752;-97.822;2023-07-22T05:37:44;6.10;;;4.20;;
58460;SDS011;45558;37.752;-97.822;2023-07-22T05:40:12;7.90;;;4.57;;
58460;SDS011;45558;37.752;-97.822;2023-07-22T05:42:40;8.48;;;4.38;;
58460;SDS011;45558;37.752;-97.822;2023-07-22T05:45:06;8.63;;;4.25;;
58460;SDS011;45558;37.752;-97.822;2023-07-22T05:47:32;6.25;;;4.15;;
58460;SDS011;45558;37.752;-97.822;2023-07-22T05:49:57;6.47;;;3.88;;
58460;SDS011;45558;37.752;-97.822;2023-07-22T05:52:23;6.45;;;4.47;;
58460;SDS011;45558;37.752;-97.822;2023-07-22T05:54:48;6.85;;;4.13;;
58460;SDS011;45558;37.752;-97.822;2023-07-22T05:57:17;7.43;;;4.60;;
58460;SDS011;45558;37.752;-97.822;2023-07-22T05:59:42;6.78;;;4.47;;
58460;SDS011;45558;37.752;-97.822;2023-07-22T06:02:09;6.90;;;5.63;;
58460;SDS011;45558;37.752;-97.822;2023-07-22T06:04:37;3.83;;;2.78;;
58460;SDS011;45558;37.752;-97.822;2023-07-22T06:07:05;5.20;;;4.18;;
58460;SDS011;45558;37.752;-97.822;2023-07-22T06:09:30;6.10;;;2.10;;
58460;SDS011;45558;37.752;-97.822;2023-07-22T06:12:04;3.20;;;2.38;;
58460;SDS011;45558;37.752;-97.822;2023-07-22T06:14:29;2.70;;;2.17;;
58460;SDS011;45558;37.752;-97.822;2023-07-22T06:16:57;0.98;;;0.70;;
58460;SDS011;45558;37.752;-97.822;2023-07-22T06:19:24;2.33;;;1.30;;
58460;SDS011;45558;37.752;-97.822;2023-07-22T06:21:49;2.03;;;1.92;;
58460;SDS011;45558;37.752;-97.822;2023-07-22T06:24:15;1.52;;;0.93;;
58460;SDS011;45558;37.752;-97.822;2023-07-22T06:26:41;1.33;;;0.82;;
58460;SDS011;45558;37.752;-97.822;2023-07-22T06:29:07;0.43;;;0.30;;
58460;SDS011;45558;37.752;-97.822;2023-07-22T06:31:40;0.57;;;0.45;;
58460;SDS011;45558;37.752;-97.822;2023-07-22T06:34:07;0.75;;;0.68;;
58460;SDS011;45558;37.752;-97.822;2023-07-22T06:36:32;1.35;;;0.63;;
58460;SDS011;45558;37.752;-97.822;2023-07-22T06:38:59;0.40;;;0.25;;
58460;SDS011;45558;37.752;-97.822;2023-07-22T06:41:27;1.38;;;0.22;;
58460;SDS011;45558;37.752;-97.822;2023-07-22T06:43:55;2.15;;;0.20;;
58460;SDS011;45558;37.752;-97.822;2023-07-22T06:46:23;0.50;;;0.20;;
58460;SDS011;45558;37.752;-97.822;2023-07-22T06:48:48;0.35;;;0.20;;
58460;SDS011;45558;37.752;-97.822;2023-07-22T06:51:14;0.75;;;0.75;;
58460;SDS011;45558;37.752;-97.822;2023-07-22T06:53:39;0.63;;;0.30;;
58460;SDS011;45558;37.752;-97.822;2023-07-22T06:56:05;0.30;;;0.30;;
58460;SDS011;45558;37.752;-97.822;2023-07-22T06:58:31;2.95;;;0.40;;
58460;SDS011;45558;37.752;-97.822;2023-07-22T07:00:58;0.80;;;0.50;;
58460;SDS011;45558;37.752;-97.822;2023-07-22T07:03:23;0.70;;;0.30;;
58460;SDS011;45558;37.752;-97.822;2023-07-22T07:05:55;0.70;;;0.40;;
58460;SDS011;45558;37.752;-97.822;2023-07-22T07:08:21;0.90;;;0.90;;
58460;SDS011;45558;37.752;-97.822;2023-07-22T07:10:47;0.40;;;0.40;;
58460;SDS011;45558;37.752;-97.822;2023-07-22T07:13:14;0.95;;;0.50;;
58460;SDS011;45558;37.752;-97.822;2023-07-22T07:15:40;0.30;;;0.30;;
58460;SDS011;45558;37.752;-97.822;2023-07-22T07:18:06;0.93;;;0.40;;
58460;SDS011;45558;37.752;-97.822;2023-07-22T07:20:31;0.38;;;0.32;;
58460;SDS011;45558;37.752;-97.822;2023-07-22T07:22:57;2.70;;;0.80;;
58460;SDS011;45558;37.752;-97.822;2023-07-22T07:25:22;0.50;;;0.32;;
58460;SDS011;45558;37.752;-97.822;2023-07-22T07:27:48;0.20;;;0.20;;
58460;SDS011;45558;37.752;-97.822;2023-07-22T07:30:13;1.48;;;0.20;;
58460;SDS011;45558;37.752;-97.822;2023-07-22T07:32:38;0.50;;;0.38;;
58460;SDS011;45558;37.752;-97.822;2023-07-22T07:35:04;1.00;;;0.50;;
58460;SDS011;45558;37.752;-97.822;2023-07-22T07:37:32;0.65;;;0.30;;
58460;SDS011;45558;37.752;-97.822;2023-07-22T07:39:59;3.40;;;1.17;;
58460;SDS011;45558;37.752;-97.822;2023-07-22T07:42:28;1.05;;;0.35;;
58460;SDS011;45558;37.752;-97.822;2023-07-22T07:44:53;1.77;;;0.22;;
58460;SDS011;45558;37.752;-97.822;2023-07-22T07:47:19;1.20;;;0.40;;
58460;SDS011;45558;37.752;-97.822;2023-07-22T07:49:47;0.30;;;0.30;;
58460;SDS011;45558;37.752;-97.822;2023-07-22T07:52:13;1.58;;;0.40;;
58460;SDS011;45558;37.752;-97.822;2023-07-22T07:54:39;1.27;;;0.30;;
58460;SDS011;45558;37.752;-97.822;2023-07-22T07:57:04;0.80;;;0.70;;
58460;SDS011;45558;37.752;-97.822;2023-07-22T07:59:33;1.30;;;0.40;;
58460;SDS011;45558;37.752;-97.822;2023-07-22T08:01:58;0.47;;;0.30;;
58460;SDS011;45558;37.752;-97.822;2023-07-22T08:04:24;0.30;;;0.30;;
58460;SDS011;45558;37.752;-97.822;2023-07-22T08:06:53;0.95;;;0.28;;
58460;SDS011;45558;37.752;-97.822;2023-07-22T08:09:20;0.50;;;0.50;;
58460;SDS011;45558;37.752;-97.822;2023-07-22T08:11:46;0.68;;;0.50;;
58460;SDS011;45558;37.752;-97.822;2023-07-22T08:14:11;2.65;;;0.38;;
58460;SDS011;45558;37.752;-97.822;2023-07-22T08:16:37;1.45;;;0.63;;
58460;SDS011;45558;37.752;-97.822;2023-07-22T08:19:02;0.57;;;0.30;;
58460;SDS011;45558;37.752;-97.822;2023-07-22T08:21:29;1.08;;;0.50;;
58460;SDS011;45558;37.752;-97.822;2023-07-22T08:23:54;0.70;;;0.55;;
58460;SDS011;45558;37.752;-97.822;2023-07-22T08:26:22;0.90;;;0.50;;
58460;SDS011;45558;37.752;-97.822;2023-07-22T08:28:48;0.55;;;0.47;;
58460;SDS011;45558;37.752;-97.822;2023-07-22T08:31:13;0.20;;;0.20;;
58460;SDS011;45558;37.752;-97.822;2023-07-22T08:33:39;2.60;;;0.40;;
58460;SDS011;45558;37.752;-97.822;2023-07-22T08:36:04;1.23;;;0.30;;
58460;SDS011;45558;37.752;-97.822;2023-07-22T08:38:30;0.60;;;0.50;;
58460;SDS011;45558;37.752;-97.822;2023-07-22T08:40:56;0.90;;;0.73;;
58460;SDS011;45558;37.752;-97.822;2023-07-22T08:43:23;0.60;;;0.35;;
58460;SDS011;45558;37.752;-97.822;2023-07-22T08:45:51;0.95;;;0.47;;
58460;SDS011;45558;37.752;-97.822;2023-07-22T08:48:21;0.93;;;0.43;;
58460;SDS011;45558;37.752;-97.822;2023-07-22T08:50:54;2.42;;;0.63;;
58460;SDS011;45558;37.752;-97.822;2023-07-22T08:53:22;2.72;;;0.52;;
58460;SDS011;45558;37.752;-97.822;2023-07-22T08:55:51;0.98;;;0.50;;
58460;SDS011;45558;37.752;-97.822;2023-07-22T08:58:19;1.00;;;0.70;;
58460;SDS011;45558;37.752;-97.822;2023-07-22T09:00:45;0.70;;;0.63;;
58460;SDS011;45558;37.752;-97.822;2023-07-22T09:03:13;4.43;;;0.80;;
58460;SDS011;45558;37.752;-97.822;2023-07-22T09:05:38;0.70;;;0.65;;
58460;SDS011;45558;37.752;-97.822;2023-07-22T09:08:08;0.75;;;0.60;;
58460;SDS011;45558;37.752;-97.822;2023-07-22T09:10:34;1.42;;;0.70;;
58460;SDS011;45558;37.752;-97.822;2023-07-22T09:13:01;2.13;;;0.90;;
58460;SDS011;45558;37.752;-97.822;2023-07-22T09:15:29;1.38;;;1.00;;
58460;SDS011;45558;37.752;-97.822;2023-07-22T09:17:59;1.67;;;0.82;;
58460;SDS011;45558;37.752;-97.822;2023-07-22T09:20:25;1.95;;;1.58;;
58460;SDS011;45558;37.752;-97.822;2023-07-22T09:22:51;2.10;;;1.30;;
58460;SDS011;45558;37.752;-97.822;2023-07-22T09:25:19;1.30;;;0.98;;
58460;SDS011;45558;37.752;-97.822;2023-07-22T09:27:52;1.15;;;0.98;;
58460;SDS011;45558;37.752;-97.822;2023-07-22T09:32:47;1.00;;;0.90;;
58460;SDS011;45558;37.752;-97.822;2023-07-22T09:35:13;0.88;;;0.75;;
58460;SDS011;45558;37.752;-97.822;2023-07-22T09:37:41;3.17;;;1.33;;
58460;SDS011;45558;37.752;-97.822;2023-07-22T09:40:14;1.60;;;1.45;;
58460;SDS011;45558;37.752;-97.822;2023-07-22T09:42:47;2.53;;;1.42;;
58460;SDS011;45558;37.752;-97.822;2023-07-22T09:45:15;3.13;;;1.50;;
58460;SDS011;45558;37.752;-97.822;2023-07-22T09:47:48;2.50;;;1.60;;
58460;SDS011;45558;37.752;-97.822;2023-07-22T09:50:15;1.80;;;1.30;;
58460;SDS011;45558;37.752;-97.822;2023-07-22T09:55:19;2.05;;;1.60;;
58460;SDS011;45558;37.752;-97.822;2023-07-22T09:57:48;2.22;;;1.15;;
58460;SDS011;45558;37.752;-97.822;2023-07-22T10:00:17;1.73;;;1.10;;
58460;SDS011;45558;37.752;-97.822;2023-07-22T10:02:51;1.85;;;1.23;;
58460;SDS011;45558;37.752;-97.822;2023-07-22T10:05:17;2.65;;;1.08;;
58460;SDS011;45558;37.752;-97.822;2023-07-22T10:07:46;2.40;;;1.30;;
58460;SDS011;45558;37.752;-97.822;2023-07-22T10:10:18;2.33;;;1.60;;
58460;SDS011;45558;37.752;-97.822;2023-07-22T10:12:51;1.65;;;1.10;;
58460;SDS011;45558;37.752;-97.822;2023-07-22T10:15:18;3.42;;;1.50;;
58460;SDS011;45558;37.752;-97.822;2023-07-22T10:17:46;1.55;;;1.13;;
58460;SDS011;45558;37.752;-97.822;2023-07-22T10:20:19;3.53;;;1.13;;
58460;SDS011;45558;37.752;-97.822;2023-07-22T10:22:45;1.95;;;1.63;;
58460;SDS011;45558;37.752;-97.822;2023-07-22T10:25:12;4.32;;;2.20;;
58460;SDS011;45558;37.752;-97.822;2023-07-22T10:27:41;2.63;;;1.80;;
58460;SDS011;45558;37.752;-97.822;2023-07-22T10:30:14;3.65;;;1.67;;
58460;SDS011;45558;37.752;-97.822;2023-07-22T10:32:46;1.50;;;1.20;;
58460;SDS011;45558;37.752;-97.822;2023-07-22T10:38:09;2.20;;;1.30;;
58460;SDS011;45558;37.752;-97.822;2023-07-22T10:40:53;2.30;;;1.90;;
58460;SDS011;45558;37.752;-97.822;2023-07-22T10:46:07;2.97;;;1.55;;
58460;SDS011;45558;37.752;-97.822;2023-07-22T10:48:42;3.35;;;1.50;;
58460;SDS011;45558;37.752;-97.822;2023-07-22T10:51:10;3.53;;;1.90;;
58460;SDS011;45558;37.752;-97.822;2023-07-22T10:53:44;2.05;;;1.80;;
58460;SDS011;45558;37.752;-97.822;2023-07-22T10:56:20;1.90;;;1.50;;
58460;SDS011;45558;37.752;-97.822;2023-07-22T11:01:30;2.08;;;1.70;;
58460;SDS011;45558;37.752;-97.822;2023-07-22T11:17:06;3.42;;;1.58;;
58460;SDS011;45558;37.752;-97.822;2023-07-22T11:19:36;1.77;;;1.27;;
58460;SDS011;45558;37.752;-97.822;2023-07-22T11:22:02;2.80;;;1.70;;
58460;SDS011;45558;37.752;-97.822;2023-07-22T11:24:28;2.80;;;1.75;;
58460;SDS011;45558;37.752;-97.822;2023-07-22T11:26:53;1.70;;;1.58;;
58460;SDS011;45558;37.752;-97.822;2023-07-22T11:29:19;2.63;;;1.75;;
58460;SDS011;45558;37.752;-97.822;2023-07-22T11:31:48;2.17;;;1.52;;
58460;SDS011;45558;37.752;-97.822;2023-07-22T11:34:24;4.80;;;1.60;;
58460;SDS011;45558;37.752;-97.822;2023-07-22T11:36:50;1.42;;;1.10;;
58460;SDS011;45558;37.752;-97.822;2023-07-22T11:39:18;1.85;;;1.30;;
58460;SDS011;45558;37.752;-97.822;2023-07-22T11:41:45;3.95;;;1.85;;
58460;SDS011;45558;37.752;-97.822;2023-07-22T11:44:14;1.65;;;1.15;;
58460;SDS011;45558;37.752;-97.822;2023-07-22T11:46:55;1.95;;;1.10;;
58460;SDS011;45558;37.752;-97.822;2023-07-22T11:49:25;1.10;;;0.80;;
58460;SDS011;45558;37.752;-97.822;2023-07-22T11:54:31;3.63;;;1.40;;
58460;SDS011;45558;37.752;-97.822;2023-07-22T11:57:20;1.38;;;0.90;;
58460;SDS011;45558;37.752;-97.822;2023-07-22T11:59:46;1.23;;;1.00;;
58460;SDS011;45558;37.752;-97.822;2023-07-22T12:02:18;2.13;;;0.98;;
58460;SDS011;45558;37.752;-97.822;2023-07-22T12:04:57;1.30;;;1.02;;
58460;SDS011;45558;37.752;-97.822;2023-07-22T12:07:27;1.10;;;0.82;;
58460;SDS011;45558;37.752;-97.822;2023-07-22T12:09:55;1.30;;;1.05;;
58460;SDS011;45558;37.752;-97.822;2023-07-22T12:12:34;1.80;;;1.25;;
58460;SDS011;45558;37.752;-97.822;2023-07-22T12:15:09;1.40;;;1.00;;
58460;SDS011;45558;37.752;-97.822;2023-07-22T12:20:10;2.58;;;1.35;;
58460;SDS011;45558;37.752;-97.822;2023-07-22T12:22:36;2.15;;;1.23;;
58460;SDS011;45558;37.752;-97.822;2023-07-22T12:25:01;2.30;;;1.10;;
58460;SDS011;45558;37.752;-97.822;2023-07-22T12:27:27;2.63;;;1.42;;
58460;SDS011;45558;37.752;-97.822;2023-07-22T12:29:53;4.32;;;1.00;;
58460;SDS011;45558;37.752;-97.822;2023-07-22T12:32:18;1.83;;;1.00;;
58460;SDS011;45558;37.752;-97.822;2023-07-22T12:34:45;2.72;;;0.80;;
58460;SDS011;45558;37.752;-97.822;2023-07-22T12:37:10;1.45;;;0.90;;
58460;SDS011;45558;37.752;-97.822;2023-07-22T12:39:35;2.17;;;1.58;;
58460;SDS011;45558;37.752;-97.822;2023-07-22T12:42:01;2.03;;;1.48;;
58460;SDS011;45558;37.752;-97.822;2023-07-22T12:44:28;1.67;;;1.38;;
58460;SDS011;45558;37.752;-97.822;2023-07-22T12:46:58;3.35;;;1.58;;
58460;SDS011;45558;37.752;-97.822;2023-07-22T12:49:23;2.50;;;1.85;;
58460;SDS011;45558;37.752;-97.822;2023-07-22T12:51:49;1.92;;;1.50;;
58460;SDS011;45558;37.752;-97.822;2023-07-22T12:54:14;7.13;;;2.00;;
58460;SDS011;45558;37.752;-97.822;2023-07-22T12:56:40;2.90;;;1.42;;
58460;SDS011;45558;37.752;-97.822;2023-07-22T12:59:07;2.63;;;2.00;;
58460;SDS011;45558;37.752;-97.822;2023-07-22T13:01:33;2.70;;;1.70;;
58460;SDS011;45558;37.752;-97.822;2023-07-22T13:04:07;2.85;;;1.90;;
58460;SDS011;45558;37.752;-97.822;2023-07-22T13:06:34;2.50;;;1.85;;
58460;SDS011;45558;37.752;-97.822;2023-07-22T13:09:01;2.05;;;1.83;;
58460;SDS011;45558;37.752;-97.822;2023-07-22T13:11:27;1.95;;;1.38;;
58460;SDS011;45558;37.752;-97.822;2023-07-22T13:13:53;2.13;;;1.60;;
58460;SDS011;45558;37.752;-97.822;2023-07-22T13:16:21;4.00;;;1.65;;
58460;SDS011;45558;37.752;-97.822;2023-07-22T13:18:46;3.63;;;1.70;;
58460;SDS011;45558;37.752;-97.822;2023-07-22T13:21:11;1.73;;;1.42;;
58460;SDS011;45558;37.752;-97.822;2023-07-22T13:23:37;2.50;;;1.60;;
58460;SDS011;45558;37.752;-97.822;2023-07-22T13:26:03;2.13;;;1.77;;
58460;SDS011;45558;37.752;-97.822;2023-07-22T13:28:29;2.05;;;1.65;;
58460;SDS011;45558;37.752;-97.822;2023-07-22T13:30:55;3.28;;;1.70;;
58460;SDS011;45558;37.752;-97.822;2023-07-22T13:33:21;4.03;;;1.73;;
58460;SDS011;45558;37.752;-97.822;2023-07-22T13:35:58;3.70;;;2.10;;
58460;SDS011;45558;37.752;-97.822;2023-07-22T13:38:23;2.58;;;2.00;;
58460;SDS011;45558;37.752;-97.822;2023-07-22T13:40:51;4.50;;;2.53;;
58460;SDS011;45558;37.752;-97.822;2023-07-22T13:43:16;3.05;;;2.38;;
58460;SDS011;45558;37.752;-97.822;2023-07-22T13:45:42;3.92;;;2.40;;
58460;SDS011;45558;37.752;-97.822;2023-07-22T13:48:07;2.95;;;1.55;;
58460;SDS011;45558;37.752;-97.822;2023-07-22T13:50:33;3.10;;;1.80;;
58460;SDS011;45558;37.752;-97.822;2023-07-22T13:52:58;3.58;;;1.85;;
58460;SDS011;45558;37.752;-97.822;2023-07-22T13:55:24;2.97;;;2.13;;
58460;SDS011;45558;37.752;-97.822;2023-07-22T13:57:49;2.88;;;1.92;;
58460;SDS011;45558;37.752;-97.822;2023-07-22T14:00:15;6.43;;;2.65;;
58460;SDS011;45558;37.752;-97.822;2023-07-22T14:02:41;3.17;;;2.58;;
58460;SDS011;45558;37.752;-97.822;2023-07-22T14:05:07;3.35;;;2.38;;
58460;SDS011;45558;37.752;-97.822;2023-07-22T14:07:35;4.25;;;2.35;;
58460;SDS011;45558;37.752;-97.822;2023-07-22T14:10:00;2.80;;;2.30;;
58460;SDS011;45558;37.752;-97.822;2023-07-22T14:12:26;2.88;;;2.33;;
58460;SDS011;45558;37.752;-97.822;2023-07-22T14:14:51;2.75;;;2.30;;
58460;SDS011;45558;37.752;-97.822;2023-07-22T14:17:17;2.42;;;1.85;;
58460;SDS011;45558;37.752;-97.822;2023-07-22T14:19:45;2.75;;;2.42;;
58460;SDS011;45558;37.752;-97.822;2023-07-22T14:22:13;2.63;;;1.98;;
58460;SDS011;45558;37.752;-97.822;2023-07-22T14:24:42;4.60;;;2.88;;
58460;SDS011;45558;37.752;-97.822;2023-07-22T14:27:10;4.70;;;3.08;;
58460;SDS011;45558;37.752;-97.822;2023-07-22T14:29:36;5.55;;;4.70;;
58460;SDS011;45558;37.752;-97.822;2023-07-22T14:32:02;3.20;;;2.58;;
58460;SDS011;45558;37.752;-97.822;2023-07-22T14:34:28;1.95;;;1.58;;
58460;SDS011;45558;37.752;-97.822;2023-07-22T14:36:53;2.72;;;2.00;;
58460;SDS011;45558;37.752;-97.822;2023-07-22T14:39:19;2.55;;;1.63;;
58460;SDS011;45558;37.752;-97.822;2023-07-22T14:41:44;3.63;;;2.75;;
58460;SDS011;45558;37.752;-97.822;2023-07-22T14:44:09;3.75;;;2.15;;
58460;SDS011;45558;37.752;-97.822;2023-07-22T14:46:35;2.33;;;2.00;;
58460;SDS011;45558;37.752;-97.822;2023-07-22T14:49:01;2.13;;;1.90;;